Time,TemperatureF,DewpointF,PressureIn,WindDirection,WindDirectionDegrees,WindSpeedMPH,WindSpeedGustMPH,Humidity,HourlyPrecipIn,Conditions,Clouds,dailyrainin,SoftwareType,DateUTC
2013-05-12 00:00:00,66.4,65.2,29.73,NNW,346,0.0,0.0,96,0.00,,,0.17,Wunderground v.1.13,2013-05-12 04:00:00,
2013-05-12 00:02:00,66.4,65.2,29.72,NNW,346,0.0,0.0,96,0.00,,,0.00,Wunderground v.1.13,2013-05-12 04:02:00,
2013-05-12 00:08:00,66.4,65.2,29.72,NNW,346,0.0,0.0,96,0.00,,,0.00,Wunderground v.1.13,2013-05-12 04:08:00,
2013-05-12 00:14:00,66.4,65.2,29.72,NNW,346,0.0,0.0,96,0.00,,,0.00,Wunderground v.1.13,2013-05-12 04:14:00,
2013-05-12 00:18:00,66.4,65.2,29.72,NNW,346,0.0,0.0,96,0.00,,,0.00,Wunderground v.1.13,2013-05-12 04:18:00,
2013-05-12 00:24:00,66.4,65.2,29.72,NNW,346,0.0,0.0,96,0.00,,,0.00,Wunderground v.1.13,2013-05-12 04:24:00,
2013-05-12 00:30:00,66.4,65.2,29.72,NNW,346,0.0,0.0,96,0.00,,,0.00,Wunderground v.1.13,2013-05-12 04:30:00,
2013-05-12 00:36:00,66.3,65.1,29.72,NNW,346,0.0,0.0,96,0.00,,,0.00,Wunderground v.1.13,2013-05-12 04:36:00,
2013-05-12 00:42:00,66.3,65.1,29.72,NNW,346,0.0,0.0,96,0.00,,,0.00,Wunderground v.1.13,2013-05-12 04:42:00,
2013-05-12 00:48:00,66.3,65.1,29.71,NNW,346,0.0,0.0,96,0.00,,,0.00,Wunderground v.1.13,2013-05-12 04:48:00,
2013-05-12 00:54:00,66.3,65.1,29.71,NNW,346,0.0,0.0,96,0.00,,,0.00,Wunderground v.1.13,2013-05-12 04:54:00,
2013-05-12 01:00:00,66.3,65.1,29.71,NNW,346,0.0,0.0,96,0.00,,,0.00,Wunderground v.1.13,2013-05-12 05:00:00,
2013-05-12 01:06:00,66.3,65.1,29.73,NNW,346,0.0,0.0,96,0.00,,,0.00,Wunderground v.1.13,2013-05-12 05:06:00,
2013-05-12 01:12:00,66.1,64.9,29.73,NNW,346,0.0,0.0,96,0.00,,,0.00,Wunderground v.1.13,2013-05-12 05:12:00,
2013-05-12 01:18:00,66.1,64.9,29.73,NNW,346,0.0,0.0,96,0.00,,,0.00,Wunderground v.1.13,2013-05-12 05:18:00,
2013-05-12 01:24:00,66.1,64.9,29.73,NNW,346,0.0,0.0,96,0.00,,,0.00,Wunderground v.1.13,2013-05-12 05:24:00,
2013-05-12 01:30:00,66.0,64.8,29.73,NNW,346,0.0,0.0,96,0.00,,,0.00,Wunderground v.1.13,2013-05-12 05:30:00,
2013-05-12 01:36:00,66.0,64.8,29.74,NNW,346,0.0,0.0,96,0.00,,,0.00,Wunderground v.1.13,2013-05-12 05:36:00,
2013-05-12 01:42:00,66.0,64.8,29.74,NNW,346,0.0,0.0,96,0.00,,,0.00,Wunderground v.1.13,2013-05-12 05:42:00,
2013-05-12 01:48:00,66.0,64.8,29.74,NNW,346,0.0,0.0,96,0.00,,,0.00,Wunderground v.1.13,2013-05-12 05:48:00,
2013-05-12 01:54:00,66.0,64.8,29.74,NNW,346,0.0,0.0,96,0.00,,,0.00,Wunderground v.1.13,2013-05-12 05:54:00,
2013-05-12 02:00:00,65.8,64.6,29.74,NNW,346,0.0,0.0,96,0.00,,,0.00,Wunderground v.1.13,2013-05-12 06:00:00,
2013-05-12 02:06:00,65.8,64.6,29.74,NNW,346,0.0,0.0,96,0.00,,,0.00,Wunderground v.1.13,2013-05-12 06:06:00,
2013-05-12 02:12:00,65.8,64.6,29.74,NNW,346,0.0,0.0,96,0.00,,,0.00,Wunderground v.1.13,2013-05-12 06:12:00,
2013-05-12 02:18:00,65.6,64.4,29.73,NNW,346,0.0,0.0,96,0.00,,,0.00,Wunderground v.1.13,2013-05-12 06:18:00,
2013-05-12 02:24:00,65.6,64.4,29.73,NNW,346,0.0,0.0,96,0.00,,,0.00,Wunderground v.1.13,2013-05-12 06:24:00,
2013-05-12 02:30:00,65.5,64.3,29.73,NNW,346,0.0,0.0,96,0.00,,,0.00,Wunderground v.1.13,2013-05-12 06:30:00,
2013-05-12 02:36:00,65.5,64.3,29.73,NNW,346,0.0,0.0,96,0.00,,,0.00,Wunderground v.1.13,2013-05-12 06:36:00,
2013-05-12 02:42:00,65.3,64.1,29.73,NNW,346,0.0,0.0,96,0.00,,,0.00,Wunderground v.1.13,2013-05-12 06:42:00,
2013-05-12 02:48:00,65.3,64.1,29.73,NNW,346,0.0,0.0,96,0.00,,,0.00,Wunderground v.1.13,2013-05-12 06:48:00,
2013-05-12 02:54:00,65.2,64.0,29.73,NNW,346,0.0,0.0,96,0.00,,,0.00,Wunderground v.1.13,2013-05-12 06:54:00,
2013-05-12 03:00:00,65.0,63.8,29.73,NNW,346,0.0,0.0,96,0.00,,,0.00,Wunderground v.1.13,2013-05-12 07:00:00,
2013-05-12 03:06:00,65.0,63.8,29.74,NNW,346,0.0,0.0,96,0.00,,,0.00,Wunderground v.1.13,2013-05-12 07:06:00,
2013-05-12 03:12:00,64.8,63.3,29.74,NNW,346,0.0,0.0,95,0.00,,,0.00,Wunderground v.1.13,2013-05-12 07:12:00,
2013-05-12 03:18:00,64.8,63.6,29.74,NNW,346,0.0,0.0,96,0.00,,,0.00,Wunderground v.1.13,2013-05-12 07:18:00,
2013-05-12 03:24:00,64.7,63.2,29.74,NNW,346,0.0,0.0,95,0.00,,,0.00,Wunderground v.1.13,2013-05-12 07:24:00,
2013-05-12 03:30:00,64.7,63.2,29.74,NNW,346,0.0,0.0,95,0.00,,,0.00,Wunderground v.1.13,2013-05-12 07:30:00,
2013-05-12 03:36:00,64.5,63.0,29.75,NNW,346,0.0,0.0,95,0.00,,,0.00,Wunderground v.1.13,2013-05-12 07:36:00,
2013-05-12 03:42:00,64.3,62.8,29.75,NNW,346,0.0,0.0,95,0.00,,,0.00,Wunderground v.1.13,2013-05-12 07:42:00,
2013-05-12 03:48:00,64.3,62.8,29.75,NNW,346,0.0,0.0,95,0.00,,,0.00,Wunderground v.1.13,2013-05-12 07:48:00,
2013-05-12 03:54:00,64.2,62.7,29.75,NNW,346,0.0,0.0,95,0.00,,,0.00,Wunderground v.1.13,2013-05-12 07:54:00,
2013-05-12 04:00:00,64.2,62.7,29.75,NNW,344,0.0,0.0,95,0.00,,,0.00,Wunderground v.1.13,2013-05-12 08:00:00,
2013-05-12 04:06:00,64.2,62.7,29.75,NNW,346,0.0,0.0,95,0.00,,,0.00,Wunderground v.1.13,2013-05-12 08:06:00,
2013-05-12 04:12:00,64.0,62.5,29.75,NNW,346,0.0,0.0,95,0.00,,,0.00,Wunderground v.1.13,2013-05-12 08:12:00,
2013-05-12 04:18:00,64.0,62.8,29.74,NNW,346,0.0,0.0,96,0.00,,,0.00,Wunderground v.1.13,2013-05-12 08:18:00,
2013-05-12 04:24:00,64.0,62.8,29.74,NNW,346,0.0,0.0,96,0.00,,,0.00,Wunderground v.1.13,2013-05-12 08:24:00,
2013-05-12 04:30:00,63.9,62.7,29.74,NNW,346,0.0,0.0,96,0.00,,,0.00,Wunderground v.1.13,2013-05-12 08:30:00,
2013-05-12 04:36:00,63.9,62.7,29.75,NNW,346,0.0,0.0,96,0.00,,,0.00,Wunderground v.1.13,2013-05-12 08:36:00,
2013-05-12 04:42:00,63.7,62.5,29.75,NNW,346,0.0,0.0,96,0.00,,,0.00,Wunderground v.1.13,2013-05-12 08:42:00,
2013-05-12 04:48:00,63.7,62.5,29.74,NNW,346,0.0,0.0,96,0.00,,,0.00,Wunderground v.1.13,2013-05-12 08:48:00,
2013-05-12 04:54:00,63.7,62.5,29.74,NNW,346,0.0,0.0,96,0.00,,,0.00,Wunderground v.1.13,2013-05-12 08:54:00,
2013-05-12 05:00:00,63.5,62.3,29.74,NNW,346,0.0,0.0,96,0.00,,,0.00,Wunderground v.1.13,2013-05-12 09:00:00,
2013-05-12 05:06:00,63.5,62.3,29.74,NNW,346,0.0,0.0,96,0.00,,,0.00,Wunderground v.1.13,2013-05-12 09:06:00,
2013-05-12 05:12:00,63.5,62.3,29.74,NNW,346,0.0,0.0,96,0.00,,,0.00,Wunderground v.1.13,2013-05-12 09:12:00,
2013-05-12 05:18:00,63.5,62.3,29.74,NNW,346,0.0,0.0,96,0.00,,,0.00,Wunderground v.1.13,2013-05-12 09:18:00,
2013-05-12 05:24:00,63.2,61.7,29.74,NNW,346,0.0,1.0,95,0.00,,,0.00,Wunderground v.1.13,2013-05-12 09:24:00,
2013-05-12 05:30:00,62.9,61.4,29.74,North,350,1.0,9.0,95,0.00,,,0.00,Wunderground v.1.13,2013-05-12 09:30:00,
2013-05-12 05:36:00,62.3,59.9,29.75,North,1,2.0,2.0,92,0.00,,,0.00,Wunderground v.1.13,2013-05-12 09:36:00,
2013-05-12 05:42:00,62.1,59.1,29.75,North,349,3.0,6.0,90,0.00,,,0.00,Wunderground v.1.13,2013-05-12 09:42:00,
2013-05-12 05:48:00,62.0,58.4,29.77,NNW,336,3.0,8.0,88,0.00,,,0.01,Wunderground v.1.13,2013-05-12 09:48:00,
2013-05-12 05:54:00,61.8,57.6,29.77,NNW,329,3.0,3.0,86,0.00,,,0.01,Wunderground v.1.13,2013-05-12 09:54:00,
2013-05-12 06:00:00,61.8,57.6,29.77,NNW,335,2.0,2.0,86,0.00,,,0.01,Wunderground v.1.13,2013-05-12 10:00:00,
2013-05-12 06:06:00,61.6,56.7,29.76,NNE,14,1.0,1.0,84,0.00,,,0.01,Wunderground v.1.13,2013-05-12 10:06:00,
2013-05-12 06:12:00,61.5,56.9,29.76,NW,311,1.0,1.0,85,0.00,,,0.01,Wunderground v.1.13,2013-05-12 10:12:00,
2013-05-12 06:18:00,61.3,56.8,29.77,NNW,344,0.0,1.0,85,0.00,,,0.01,Wunderground v.1.13,2013-05-12 10:18:00,
2013-05-12 06:24:00,61.2,56.7,29.77,NNW,344,1.0,1.0,85,0.00,,,0.01,Wunderground v.1.13,2013-05-12 10:24:00,
2013-05-12 06:30:00,61.2,57.3,29.77,NNW,344,0.0,0.0,87,0.00,,,0.01,Wunderground v.1.13,2013-05-12 10:30:00,
2013-05-12 06:36:00,61.2,57.6,29.78,NNW,344,0.0,0.0,88,0.00,,,0.01,Wunderground v.1.13,2013-05-12 10:36:00,
2013-05-12 06:42:00,60.9,57.0,29.78,NNW,344,0.0,0.0,87,0.00,,,0.01,Wunderground v.1.13,2013-05-12 10:42:00,
2013-05-12 06:48:00,60.7,56.5,29.78,North,353,0.0,0.0,86,0.00,,,0.01,Wunderground v.1.13,2013-05-12 10:48:00,
2013-05-12 06:54:00,60.5,56.3,29.78,North,352,0.0,0.0,86,0.00,,,0.01,Wunderground v.1.13,2013-05-12 10:54:00,
2013-05-12 07:00:00,60.4,55.9,29.78,NNW,332,1.0,1.0,85,0.00,,,0.01,Wunderground v.1.13,2013-05-12 11:00:00,
2013-05-12 07:06:00,60.2,55.7,29.78,North,354,0.0,0.0,85,0.00,,,0.01,Wunderground v.1.13,2013-05-12 11:06:00,
2013-05-12 07:12:00,60.4,56.5,29.78,NNW,336,0.0,3.0,87,0.00,,,0.01,Wunderground v.1.13,2013-05-12 11:12:00,
2013-05-12 07:18:00,60.2,56.0,29.79,NNW,335,1.0,1.0,86,0.00,,,0.01,Wunderground v.1.13,2013-05-12 11:18:00,
2013-05-12 07:24:00,60.2,56.3,29.79,NNW,340,0.0,0.0,87,0.00,,,0.01,Wunderground v.1.13,2013-05-12 11:24:00,
2013-05-12 07:30:00,60.1,55.6,29.79,North,0,0.0,0.0,85,0.00,,,0.01,Wunderground v.1.13,2013-05-12 11:30:00,
2013-05-12 07:36:00,59.9,55.1,29.79,North,349,1.0,1.0,84,0.00,,,0.01,Wunderground v.1.13,2013-05-12 11:36:00,
2013-05-12 07:42:00,59.9,54.4,29.79,North,350,1.0,1.0,82,0.00,,,0.01,Wunderground v.1.13,2013-05-12 11:42:00,
2013-05-12 07:48:00,59.9,54.7,29.80,North,350,0.0,2.0,83,0.00,,,0.01,Wunderground v.1.13,2013-05-12 11:48:00,
2013-05-12 07:54:00,60.1,55.2,29.80,NNW,337,1.0,1.0,84,0.00,,,0.01,Wunderground v.1.13,2013-05-12 11:54:00,
2013-05-12 08:00:00,60.1,54.6,29.80,NNW,335,1.0,6.0,82,0.00,,,0.01,Wunderground v.1.13,2013-05-12 12:00:00,
2013-05-12 08:06:00,60.1,53.6,29.80,North,354,2.0,2.0,79,0.00,,,0.01,Wunderground v.1.13,2013-05-12 12:06:00,
2013-05-12 08:12:00,60.1,53.2,29.80,NW,323,2.0,2.0,78,0.00,,,0.01,Wunderground v.1.13,2013-05-12 12:12:00,
2013-05-12 08:18:00,60.2,54.0,29.81,North,352,1.0,1.0,80,0.00,,,0.01,Wunderground v.1.13,2013-05-12 12:18:00,
2013-05-12 08:24:00,60.2,53.0,29.81,North,353,1.0,3.0,77,0.00,,,0.01,Wunderground v.1.13,2013-05-12 12:24:00,
2013-05-12 08:30:00,60.2,53.0,29.81,NW,323,2.0,3.0,77,0.00,,,0.01,Wunderground v.1.13,2013-05-12 12:30:00,
2013-05-12 08:36:00,60.4,54.2,29.81,NW,323,1.0,1.0,80,0.00,,,0.01,Wunderground v.1.13,2013-05-12 12:36:00,
2013-05-12 08:42:00,60.5,53.6,29.81,North,0,0.0,1.0,78,0.00,,,0.01,Wunderground v.1.13,2013-05-12 12:42:00,
2013-05-12 08:48:00,60.5,52.9,29.82,NNW,335,1.0,1.0,76,0.00,,,0.01,Wunderground v.1.13,2013-05-12 12:48:00,
2013-05-12 08:54:00,60.9,55.0,29.82,North,356,1.0,1.0,81,0.00,,,0.01,Wunderground v.1.13,2013-05-12 12:54:00,
2013-05-12 09:00:00,61.8,51.5,29.82,NW,315,1.0,3.0,69,0.00,,,0.01,Wunderground v.1.13,2013-05-12 13:00:00,
2013-05-12 09:06:00,62.4,51.7,29.82,North,359,2.0,2.0,68,0.00,,,0.01,Wunderground v.1.13,2013-05-12 13:06:00,
2013-05-12 09:12:00,62.6,51.9,29.82,NNW,337,1.0,1.0,68,0.00,,,0.01,Wunderground v.1.13,2013-05-12 13:12:00,
2013-05-12 09:18:00,62.9,53.0,29.83,NNW,336,1.0,1.0,70,0.00,,,0.01,Wunderground v.1.13,2013-05-12 13:18:00,
2013-05-12 09:24:00,63.2,52.5,29.83,North,356,1.0,3.0,68,0.00,,,0.01,Wunderground v.1.13,2013-05-12 13:24:00,
2013-05-12 09:30:00,63.7,50.9,29.83,NNW,333,3.0,4.0,63,0.00,,,0.01,Wunderground v.1.13,2013-05-12 13:30:00,
2013-05-12 09:36:00,63.5,50.2,29.82,West,281,4.0,4.0,62,0.00,,,0.01,Wunderground v.1.13,2013-05-12 13:36:00,
2013-05-12 09:42:00,63.9,51.1,29.82,NNW,330,4.0,4.0,63,0.00,,,0.01,Wunderground v.1.13,2013-05-12 13:42:00,
2013-05-12 09:48:00,64.5,52.0,29.82,North,0,3.0,3.0,64,0.00,,,0.01,Wunderground v.1.13,2013-05-12 13:48:00,
2013-05-12 09:54:00,64.8,49.7,29.82,NNW,336,3.0,3.0,58,0.00,,,0.01,Wunderground v.1.13,2013-05-12 13:54:00,
2013-05-12 10:00:00,65.0,51.2,29.82,NNW,329,2.0,3.0,61,0.00,,,0.01,Wunderground v.1.13,2013-05-12 14:00:00,
2013-05-12 10:06:00,65.8,50.1,29.83,NNW,335,3.0,5.0,57,0.00,,,0.01,Wunderground v.1.13,2013-05-12 14:06:00,
2013-05-12 10:12:00,66.0,52.2,29.83,North,0,3.0,3.0,61,0.00,,,0.01,Wunderground v.1.13,2013-05-12 14:12:00,
2013-05-12 10:18:00,66.3,49.6,29.83,North,359,2.0,3.0,55,0.00,,,0.01,Wunderground v.1.13,2013-05-12 14:18:00,
2013-05-12 10:24:00,66.8,49.6,29.83,NNW,333,5.0,8.0,54,0.00,,,0.01,Wunderground v.1.13,2013-05-12 14:24:00,
2013-05-12 10:30:00,67.3,51.5,29.83,North,349,5.0,5.0,57,0.00,,,0.01,Wunderground v.1.13,2013-05-12 14:30:00,
2013-05-12 10:36:00,67.3,50.1,29.82,North,0,2.0,2.0,54,0.00,,,0.01,Wunderground v.1.13,2013-05-12 14:36:00,
2013-05-12 10:42:00,67.8,51.5,29.82,North,1,1.0,1.0,56,0.00,,,0.01,Wunderground v.1.13,2013-05-12 14:42:00,
2013-05-12 10:48:00,68.4,51.1,29.82,NNW,344,2.0,2.0,54,0.00,,,0.01,Wunderground v.1.13,2013-05-12 14:48:00,
2013-05-12 10:54:00,68.6,49.7,29.82,NNW,347,3.0,6.0,51,0.00,,,0.01,Wunderground v.1.13,2013-05-12 14:54:00,
2013-05-12 11:00:00,68.4,51.1,29.82,North,3,3.0,3.0,54,0.00,,,0.01,Wunderground v.1.13,2013-05-12 15:00:00,
2013-05-12 11:06:00,68.8,52.9,29.82,NNW,339,2.0,2.0,57,0.00,,,0.01,Wunderground v.1.13,2013-05-12 15:06:00,
2013-05-12 11:12:00,68.4,50.6,29.82,NNW,342,4.0,4.0,53,0.00,,,0.01,Wunderground v.1.13,2013-05-12 15:12:00,
2013-05-12 11:18:00,68.8,51.0,29.82,NNW,340,4.0,5.0,53,0.00,,,0.01,Wunderground v.1.13,2013-05-12 15:18:00,
2013-05-12 11:24:00,68.6,50.8,29.82,NNW,330,3.0,5.0,53,0.00,,,0.01,Wunderground v.1.13,2013-05-12 15:24:00,
2013-05-12 11:30:00,69.8,52.4,29.82,NNW,347,2.0,2.0,54,0.00,,,0.01,Wunderground v.1.13,2013-05-12 15:30:00,
2013-05-12 11:36:00,70.4,49.8,29.82,NNW,342,2.0,2.0,48,0.00,,,0.01,Wunderground v.1.13,2013-05-12 15:36:00,
2013-05-12 11:42:00,69.4,51.0,29.82,NW,319,4.0,7.0,52,0.00,,,0.01,Wunderground v.1.13,2013-05-12 15:42:00,
2013-05-12 11:48:00,70.1,51.1,29.82,NNW,330,4.0,6.0,51,0.00,,,0.01,Wunderground v.1.13,2013-05-12 15:48:00,
2013-05-12 11:54:00,69.9,51.5,29.82,North,352,3.0,3.0,52,0.00,,,0.01,Wunderground v.1.13,2013-05-12 15:54:00,
2013-05-12 12:00:00,70.9,50.8,29.82,North,8,2.0,2.0,49,0.00,,,0.01,Wunderground v.1.13,2013-05-12 16:00:00,
2013-05-12 12:06:00,69.4,51.5,29.82,North,0,3.0,3.0,53,0.00,,,0.01,Wunderground v.1.13,2013-05-12 16:06:00,
2013-05-12 12:12:00,70.3,51.3,29.82,North,0,2.0,3.0,51,0.00,,,0.01,Wunderground v.1.13,2013-05-12 16:12:00,
2013-05-12 12:18:00,70.4,51.9,29.82,North,356,1.0,1.0,52,0.00,,,0.01,Wunderground v.1.13,2013-05-12 16:18:00,
2013-05-12 12:24:00,70.4,54.0,29.82,North,0,0.0,0.0,56,0.00,,,0.01,Wunderground v.1.13,2013-05-12 16:24:00,
2013-05-12 12:30:00,70.3,51.8,29.82,North,0,0.0,0.0,52,0.00,,,0.01,Wunderground v.1.13,2013-05-12 16:30:00,
2013-05-12 12:36:00,71.1,49.8,29.81,North,0,2.0,2.0,47,0.00,,,0.01,Wunderground v.1.13,2013-05-12 16:36:00,
2013-05-12 12:42:00,70.9,49.1,29.81,West,264,5.0,5.0,46,0.00,,,0.01,Wunderground v.1.13,2013-05-12 16:42:00,
2013-05-12 12:48:00,70.4,49.8,29.81,North,349,5.0,5.0,48,0.00,,,0.01,Wunderground v.1.13,2013-05-12 16:48:00,
2013-05-12 12:54:00,71.8,48.7,29.81,North,350,4.0,6.0,44,0.00,,,0.01,Wunderground v.1.13,2013-05-12 16:54:00,
2013-05-12 13:00:00,71.6,50.3,29.81,West,277,4.0,4.0,47,0.00,,,0.01,Wunderground v.1.13,2013-05-12 17:00:00,
2013-05-12 13:06:00,72.3,52.1,29.82,North,353,2.0,8.0,49,0.00,,,0.01,Wunderground v.1.13,2013-05-12 17:06:00,
2013-05-12 13:12:00,73.2,50.0,29.82,NNW,343,2.0,2.0,44,0.00,,,0.01,Wunderground v.1.13,2013-05-12 17:12:00,
2013-05-12 13:18:00,71.8,49.3,29.82,NNW,346,2.0,2.0,45,0.00,,,0.01,Wunderground v.1.13,2013-05-12 17:18:00,
2013-05-12 13:24:00,71.3,51.1,29.82,North,0,1.0,1.0,49,0.00,,,0.01,Wunderground v.1.13,2013-05-12 17:24:00,
2013-05-12 13:30:00,72.5,48.1,29.82,North,0,2.0,5.0,42,0.00,,,0.01,Wunderground v.1.13,2013-05-12 17:30:00,
2013-05-12 13:36:00,73.0,45.9,29.82,NNE,32,4.0,4.0,38,0.00,,,0.01,Wunderground v.1.13,2013-05-12 17:36:00,
2013-05-12 13:42:00,72.5,46.8,29.82,NNE,16,3.0,3.0,40,0.00,,,0.01,Wunderground v.1.13,2013-05-12 17:42:00,
2013-05-12 13:48:00,72.7,47.6,29.82,SSW,206,3.0,3.0,41,0.00,,,0.01,Wunderground v.1.13,2013-05-12 17:48:00,
2013-05-12 13:54:00,72.3,47.9,29.82,North,352,4.0,4.0,42,0.00,,,0.01,Wunderground v.1.13,2013-05-12 17:54:00,
2013-05-12 14:00:00,73.2,47.4,29.82,North,356,3.0,3.0,40,0.00,,,0.01,Wunderground v.1.13,2013-05-12 18:00:00,
2013-05-12 14:06:00,73.0,50.4,29.82,West,263,2.0,2.0,45,0.00,,,0.01,Wunderground v.1.13,2013-05-12 18:06:00,
2013-05-12 14:12:00,72.3,48.5,29.82,North,1,2.0,2.0,43,0.00,,,0.01,Wunderground v.1.13,2013-05-12 18:12:00,
2013-05-12 14:18:00,72.0,50.1,29.82,North,0,1.0,5.0,46,0.00,,,0.01,Wunderground v.1.13,2013-05-12 18:18:00,
2013-05-12 14:24:00,73.0,47.9,29.82,North,359,1.0,1.0,41,0.00,,,0.01,Wunderground v.1.13,2013-05-12 18:24:00,
2013-05-12 14:30:00,72.0,48.9,29.82,North,0,1.0,2.0,44,0.00,,,0.01,Wunderground v.1.13,2013-05-12 18:30:00,
2013-05-12 14:36:00,72.5,46.1,29.82,NNW,337,4.0,4.0,39,0.00,,,0.01,Wunderground v.1.13,2013-05-12 18:36:00,
2013-05-12 14:42:00,71.1,46.8,29.82,North,357,4.0,4.0,42,0.00,,,0.01,Wunderground v.1.13,2013-05-12 18:42:00,
2013-05-12 14:48:00,71.6,47.3,29.82,NNW,342,2.0,3.0,42,0.00,,,0.01,Wunderground v.1.13,2013-05-12 18:48:00,
2013-05-12 14:54:00,72.3,46.6,29.82,NNW,335,3.0,7.0,40,0.00,,,0.01,Wunderground v.1.13,2013-05-12 18:54:00,
2013-05-12 15:00:00,71.3,45.7,29.82,North,349,2.0,4.0,40,0.00,,,0.01,Wunderground v.1.13,2013-05-12 19:00:00,
2013-05-12 15:06:00,71.6,48.5,29.82,SSW,205,2.0,2.0,44,0.00,,,0.01,Wunderground v.1.13,2013-05-12 19:06:00,
2013-05-12 15:12:00,71.8,48.1,29.82,NE,37,1.0,5.0,43,0.00,,,0.01,Wunderground v.1.13,2013-05-12 19:12:00,
2013-05-12 15:18:00,72.1,48.4,29.82,SSW,212,1.0,1.0,43,0.00,,,0.01,Wunderground v.1.13,2013-05-12 19:18:00,
2013-05-12 15:24:00,72.1,47.1,29.82,North,4,1.0,8.0,41,0.00,,,0.01,Wunderground v.1.13,2013-05-12 19:24:00,
2013-05-12 15:30:00,72.3,43.1,29.82,North,7,3.0,5.0,35,0.00,,,0.01,Wunderground v.1.13,2013-05-12 19:30:00,
2013-05-12 15:36:00,71.8,42.7,29.82,SSE,161,3.0,3.0,35,0.00,,,0.01,Wunderground v.1.13,2013-05-12 19:36:00,
2013-05-12 15:42:00,71.1,41.3,29.82,NNW,336,3.0,3.0,34,0.00,,,0.01,Wunderground v.1.13,2013-05-12 19:42:00,
2013-05-12 15:48:00,71.3,43.7,29.82,North,349,3.0,3.0,37,0.00,,,0.01,Wunderground v.1.13,2013-05-12 19:48:00,
2013-05-12 15:54:00,71.3,43.0,29.82,NNE,23,1.0,1.0,36,0.00,,,0.01,Wunderground v.1.13,2013-05-12 19:54:00,
2013-05-12 16:00:00,71.3,40.7,29.82,NNW,335,1.0,7.0,33,0.00,,,0.01,Wunderground v.1.13,2013-05-12 20:00:00,
2013-05-12 16:06:00,71.6,41.0,29.81,WNW,302,3.0,3.0,33,0.00,,,0.01,Wunderground v.1.13,2013-05-12 20:06:00,
2013-05-12 16:12:00,71.5,39.3,29.81,NNW,336,3.0,3.0,31,0.00,,,0.01,Wunderground v.1.13,2013-05-12 20:12:00,
2013-05-12 16:18:00,70.9,43.3,29.81,SW,234,2.0,3.0,37,0.00,,,0.01,Wunderground v.1.13,2013-05-12 20:18:00,
2013-05-12 16:24:00,70.9,40.3,29.81,NNW,339,2.0,2.0,33,0.00,,,0.01,Wunderground v.1.13,2013-05-12 20:24:00,
2013-05-12 16:30:00,70.9,40.3,29.81,WNW,285,2.0,7.0,33,0.00,,,0.01,Wunderground v.1.13,2013-05-12 20:30:00,
2013-05-12 16:36:00,70.8,39.5,29.81,NW,320,4.0,11.0,32,0.00,,,0.01,Wunderground v.1.13,2013-05-12 20:36:00,
2013-05-12 16:42:00,70.4,39.1,29.81,SW,226,6.0,6.0,32,0.00,,,0.01,Wunderground v.1.13,2013-05-12 20:42:00,
2013-05-12 16:48:00,70.4,39.1,29.82,North,354,6.0,13.0,32,0.00,,,0.01,Wunderground v.1.13,2013-05-12 20:48:00,
2013-05-12 16:54:00,70.4,38.3,29.82,North,350,6.0,6.0,31,0.00,,,0.01,Wunderground v.1.13,2013-05-12 20:54:00,
2013-05-12 17:00:00,69.9,41.0,29.82,SSW,205,2.0,2.0,35,0.00,,,0.01,Wunderground v.1.13,2013-05-12 21:00:00,
2013-05-12 17:06:00,70.1,38.0,29.82,NNW,339,3.0,3.0,31,0.00,,,0.01,Wunderground v.1.13,2013-05-12 21:06:00,
2013-05-12 17:12:00,70.1,38.0,29.82,North,6,5.0,10.0,31,0.00,,,0.01,Wunderground v.1.13,2013-05-12 21:12:00,
2013-05-12 17:18:00,69.8,39.4,29.83,North,0,4.0,4.0,33,0.00,,,0.01,Wunderground v.1.13,2013-05-12 21:18:00,
2013-05-12 17:24:00,70.1,39.6,29.83,NNW,347,2.0,2.0,33,0.00,,,0.01,Wunderground v.1.13,2013-05-12 21:24:00,
2013-05-12 17:30:00,69.9,37.9,29.83,NNW,346,3.0,9.0,31,0.00,,,0.01,Wunderground v.1.13,2013-05-12 21:30:00,
2013-05-12 17:36:00,70.1,39.6,29.83,NNW,340,3.0,3.0,33,0.00,,,0.01,Wunderground v.1.13,2013-05-12 21:36:00,
2013-05-12 17:42:00,70.1,40.4,29.83,WSW,237,3.0,3.0,34,0.00,,,0.01,Wunderground v.1.13,2013-05-12 21:42:00,
2013-05-12 17:48:00,69.8,40.2,29.83,NW,313,3.0,3.0,34,0.00,,,0.01,Wunderground v.1.13,2013-05-12 21:48:00,
2013-05-12 17:54:00,69.6,38.4,29.83,NNW,337,2.0,2.0,32,0.00,,,0.01,Wunderground v.1.13,2013-05-12 21:54:00,
2013-05-12 18:00:00,69.8,39.4,29.83,North,359,3.0,3.0,33,0.00,,,0.01,Wunderground v.1.13,2013-05-12 22:00:00,
2013-05-12 18:06:00,69.6,37.6,29.83,NNW,346,4.0,4.0,31,0.00,,,0.01,Wunderground v.1.13,2013-05-12 22:06:00,
2013-05-12 18:12:00,69.3,38.9,29.83,North,4,2.0,2.0,33,0.00,,,0.01,Wunderground v.1.13,2013-05-12 22:12:00,
2013-05-12 18:18:00,69.3,36.5,29.84,North,350,3.0,3.0,30,0.00,,,0.01,Wunderground v.1.13,2013-05-12 22:18:00,
2013-05-12 18:24:00,69.1,36.3,29.84,North,0,5.0,5.0,30,0.00,,,0.01,Wunderground v.1.13,2013-05-12 22:24:00,
2013-05-12 18:30:00,69.3,37.3,29.84,WNW,302,3.0,3.0,31,0.00,,,0.01,Wunderground v.1.13,2013-05-12 22:30:00,
2013-05-12 18:36:00,69.1,36.3,29.85,NNW,340,4.0,6.0,30,0.00,,,0.01,Wunderground v.1.13,2013-05-12 22:36:00,
2013-05-12 18:42:00,68.9,35.3,29.85,North,356,6.0,6.0,29,0.00,,,0.01,Wunderground v.1.13,2013-05-12 22:42:00,
2013-05-12 18:48:00,68.8,36.1,29.85,NNW,339,4.0,4.0,30,0.00,,,0.01,Wunderground v.1.13,2013-05-12 22:48:00,
2013-05-12 18:54:00,68.6,37.5,29.85,NNW,339,3.0,3.0,32,0.00,,,0.01,Wunderground v.1.13,2013-05-12 22:54:00,
2013-05-12 19:00:00,68.1,36.3,29.85,NNW,343,1.0,1.0,31,0.00,,,0.01,Wunderground v.1.13,2013-05-12 23:00:00,
2013-05-12 19:06:00,67.9,36.1,29.86,WNW,298,2.0,3.0,31,0.00,,,0.01,Wunderground v.1.13,2013-05-12 23:06:00,
2013-05-12 19:12:00,67.8,36.0,29.86,North,359,2.0,2.0,31,0.00,,,0.01,Wunderground v.1.13,2013-05-12 23:12:00,
2013-05-12 19:18:00,67.6,35.0,29.86,North,353,1.0,1.0,30,0.00,,,0.01,Wunderground v.1.13,2013-05-12 23:18:00,
2013-05-12 19:24:00,67.4,34.9,29.86,North,359,3.0,3.0,30,0.00,,,0.01,Wunderground v.1.13,2013-05-12 23:24:00,
2013-05-12 19:30:00,67.3,36.4,29.86,NNW,332,3.0,3.0,32,0.00,,,0.01,Wunderground v.1.13,2013-05-12 23:30:00,
2013-05-12 19:36:00,66.9,36.1,29.88,NNW,328,2.0,2.0,32,0.00,,,0.01,Wunderground v.1.13,2013-05-12 23:36:00,
2013-05-12 19:42:00,66.4,36.4,29.88,North,0,1.0,1.0,33,0.00,,,0.01,Wunderground v.1.13,2013-05-12 23:42:00,
2013-05-12 19:48:00,66.1,36.9,29.88,North,4,1.0,1.0,34,0.00,,,0.01,Wunderground v.1.13,2013-05-12 23:48:00,
2013-05-12 19:54:00,65.8,38.8,29.88,North,0,1.0,1.0,37,0.00,,,0.01,Wunderground v.1.13,2013-05-12 23:54:00,
2013-05-12 20:00:00,65.2,38.3,29.88,NNW,332,1.0,1.0,37,0.00,,,0.01,Wunderground v.1.13,2013-05-13 00:00:00,
2013-05-12 20:06:00,64.8,37.9,29.89,NNW,339,1.0,1.0,37,0.00,,,0.01,Wunderground v.1.13,2013-05-13 00:06:00,
2013-05-12 20:12:00,64.3,38.1,29.89,NNW,339,1.0,1.0,38,0.00,,,0.01,Wunderground v.1.13,2013-05-13 00:12:00,
2013-05-12 20:18:00,63.5,39.4,29.90,NNW,339,0.0,0.0,41,0.00,,,0.01,Wunderground v.1.13,2013-05-13 00:18:00,
2013-05-12 20:24:00,63.1,39.6,29.90,NNW,339,0.0,0.0,42,0.00,,,0.01,Wunderground v.1.13,2013-05-13 00:24:00,
2013-05-12 20:30:00,62.7,38.6,29.90,NNW,337,0.0,0.0,41,0.00,,,0.01,Wunderground v.1.13,2013-05-13 00:30:00,
2013-05-12 20:36:00,62.3,38.9,29.90,NNW,339,0.0,0.0,42,0.00,,,0.01,Wunderground v.1.13,2013-05-13 00:36:00,
2013-05-12 20:42:00,62.0,38.6,29.90,North,0,0.0,4.0,42,0.00,,,0.01,Wunderground v.1.13,2013-05-13 00:42:00,
2013-05-12 20:48:00,61.8,39.6,29.90,North,359,0.0,0.0,44,0.00,,,0.01,Wunderground v.1.13,2013-05-13 00:48:00,
2013-05-12 20:54:00,61.3,39.8,29.90,North,359,0.0,0.0,45,0.00,,,0.01,Wunderground v.1.13,2013-05-13 00:54:00,
2013-05-12 21:00:00,60.5,39.0,29.90,North,359,0.0,0.0,45,0.00,,,0.01,Wunderground v.1.13,2013-05-13 01:00:00,
2013-05-12 21:06:00,59.8,43.6,29.91,North,359,0.0,0.0,55,0.00,,,0.01,Wunderground v.1.13,2013-05-13 01:06:00,
2013-05-12 21:12:00,59.3,43.1,29.91,North,359,0.0,0.0,55,0.00,,,0.01,Wunderground v.1.13,2013-05-13 01:12:00,
2013-05-12 21:18:00,58.7,42.6,29.93,North,359,0.0,0.0,55,0.00,,,0.01,Wunderground v.1.13,2013-05-13 01:18:00,
2013-05-12 21:24:00,58.3,40.7,29.93,North,359,0.0,0.0,52,0.00,,,0.01,Wunderground v.1.13,2013-05-13 01:24:00,
2013-05-12 21:30:00,58.0,40.5,29.93,North,359,0.0,0.0,52,0.00,,,0.01,Wunderground v.1.13,2013-05-13 01:30:00,
2013-05-12 21:36:00,57.5,41.0,29.93,North,359,0.0,0.0,54,0.00,,,0.01,Wunderground v.1.13,2013-05-13 01:36:00,
2013-05-12 21:42:00,57.2,41.2,29.93,North,359,0.0,0.0,55,0.00,,,0.01,Wunderground v.1.13,2013-05-13 01:42:00,
2013-05-12 21:48:00,56.9,39.9,29.94,North,359,0.0,0.0,53,0.00,,,0.01,Wunderground v.1.13,2013-05-13 01:48:00,
2013-05-12 21:54:00,56.7,39.3,29.94,North,359,0.0,0.0,52,0.00,,,0.01,Wunderground v.1.13,2013-05-13 01:54:00,
2013-05-12 22:00:00,56.5,39.6,29.94,North,359,0.0,0.0,53,0.00,,,0.01,Wunderground v.1.13,2013-05-13 02:00:00,
2013-05-12 22:06:00,56.2,40.7,29.95,North,359,0.0,0.0,56,0.00,,,0.01,Wunderground v.1.13,2013-05-13 02:06:00,
2013-05-12 22:12:00,56.2,42.9,29.95,North,359,0.0,0.0,61,0.00,,,0.01,Wunderground v.1.13,2013-05-13 02:12:00,
2013-05-12 22:18:00,55.4,43.4,29.95,North,359,0.0,0.0,64,0.00,,,0.01,Wunderground v.1.13,2013-05-13 02:18:00,
2013-05-12 22:24:00,55.0,43.0,29.95,North,359,0.0,0.0,64,0.00,,,0.01,Wunderground v.1.13,2013-05-13 02:24:00,
2013-05-12 22:30:00,54.5,42.6,29.95,North,359,0.0,0.0,64,0.00,,,0.01,Wunderground v.1.13,2013-05-13 02:30:00,
2013-05-12 22:36:00,54.1,41.8,29.95,North,359,0.0,0.0,63,0.00,,,0.01,Wunderground v.1.13,2013-05-13 02:36:00,
2013-05-12 22:42:00,53.6,40.5,29.95,North,359,0.0,0.0,61,0.00,,,0.01,Wunderground v.1.13,2013-05-13 02:42:00,
2013-05-12 22:48:00,53.3,40.6,29.95,North,359,0.0,0.0,62,0.00,,,0.01,Wunderground v.1.13,2013-05-13 02:48:00,
2013-05-12 22:54:00,53.3,40.6,29.95,North,359,0.0,0.0,62,0.00,,,0.01,Wunderground v.1.13,2013-05-13 02:54:00,
2013-05-12 23:00:00,53.2,40.1,29.95,North,359,0.0,0.0,61,0.00,,,0.01,Wunderground v.1.13,2013-05-13 03:00:00,
2013-05-12 23:06:00,52.5,39.4,29.95,North,359,0.0,0.0,61,0.00,,,0.01,Wunderground v.1.13,2013-05-13 03:06:00,
2013-05-12 23:12:00,52.6,39.1,29.95,North,359,0.0,0.0,60,0.00,,,0.01,Wunderground v.1.13,2013-05-13 03:12:00,
2013-05-12 23:18:00,52.5,38.6,29.95,North,359,0.0,0.0,59,0.00,,,0.01,Wunderground v.1.13,2013-05-13 03:18:00,
2013-05-12 23:24:00,51.9,40.5,29.95,North,359,0.0,0.0,65,0.00,,,0.01,Wunderground v.1.13,2013-05-13 03:24:00,
2013-05-12 23:30:00,51.1,40.9,29.95,North,359,0.0,0.0,68,0.00,,,0.01,Wunderground v.1.13,2013-05-13 03:30:00,
2013-05-12 23:36:00,50.7,39.4,29.96,North,359,0.0,0.0,65,0.00,,,0.01,Wunderground v.1.13,2013-05-13 03:36:00,
2013-05-12 23:42:00,50.5,38.8,29.96,North,359,0.0,0.0,64,0.00,,,0.01,Wunderground v.1.13,2013-05-13 03:42:00,
2013-05-12 23:48:00,50.4,39.9,29.96,North,359,0.0,0.0,67,0.00,,,0.01,Wunderground v.1.13,2013-05-13 03:48:00,
2013-05-12 23:54:00,50.1,40.7,29.96,North,359,0.0,0.0,70,0.00,,,0.01,Wunderground v.1.13,2013-05-13 03:54:00,